Time;durP1;ratioP1;P1;durP2;ratioP2;P2;SDS_P1;SDS_P2;PMS_P1;PMS_P2;Temp;Humidity;BMP_temperature;BMP_pressure;BME280_temperature;BME280_humidity;BME280_pressure;Samples;Min_cycle;Max_cycle;Signal;HPM_P1;HPM_P2
2022/08/17 00:01:22;;;;;;;20.13;13.57;;;20.40;99.90;20.60;99178.00;;;;4993356;28;86517;-63
2022/08/17 00:03:50;;;;;;;15.40;12.27;;;20.40;99.90;20.60;99177.00;;;;4997937;28;87758;-63
2022/08/17 00:06:18;;;;;;;17.73;12.63;;;;;20.50;99171.00;;;;4988803;28;88479;-62
2022/08/17 00:08:52;;;;;;;17.02;13.38;;;20.20;99.90;20.40;99174.00;;;;4990762;28;87940;-62
2022/08/17 00:11:29;;;;;;;19.17;14.43;;;20.20;99.90;20.40;99175.00;;;;4982463;28;86959;-62
2022/08/17 00:14:00;;;;;;;17.52;12.70;;;20.20;99.90;20.40;99176.00;;;;4996027;28;87487;-63
2022/08/17 00:16:34;;;;;;;22.67;14.43;;;20.10;99.90;20.40;99170.00;;;;4995284;28;87384;-62
2022/08/17 00:19:06;;;;;;;19.42;13.63;;;20.20;99.90;20.40;99178.00;;;;4995923;28;87714;-62
2022/08/17 00:21:34;;;;;;;19.15;12.57;;;20.10;99.90;20.30;99183.00;;;;4987693;28;87236;-63
2022/08/17 00:24:01;;;;;;;20.00;14.75;;;;;20.30;99179.00;;;;4989925;28;87632;-63
2022/08/17 00:26:28;;;;;;;18.65;12.98;;;;;20.30;99176.00;;;;4987833;28;88299;-62
2022/08/17 00:28:55;;;;;;;25.50;17.50;;;20.00;99.90;20.30;99175.00;;;;4993186;28;87009;-63
2022/08/17 00:31:21;;;;;;;21.73;15.77;;;;;20.30;99173.00;;;;4998697;28;87439;-62
2022/08/17 00:33:48;;;;;;;19.17;15.95;;;;;20.20;99176.00;;;;4984950;28;90131;-62
2022/08/17 00:36:15;;;;;;;21.13;16.38;;;;;20.20;99162.00;;;;4995736;28;88038;-62
2022/08/17 00:38:42;;;;;;;23.80;16.85;;;20.00;99.90;20.20;99169.00;;;;4997825;28;88103;-62
2022/08/17 00:41:13;;;;;;;23.48;16.42;;;20.00;99.90;20.20;99162.00;;;;4985174;28;87447;-62
2022/08/17 00:43:59;;;;;;;25.42;15.52;;;19.90;99.90;20.10;99158.00;;;;4988063;28;87664;-62
2022/08/17 00:46:44;;;;;;;21.05;16.10;;;19.90;99.90;20.00;99161.00;;;;4996683;28;87408;-63
2022/08/17 00:49:12;;;;;;;24.17;16.65;;;19.80;99.90;20.00;99161.00;;;;4994543;28;87096;-62
2022/08/17 00:51:50;;;;;;;23.45;17.05;;;19.80;99.90;20.00;99163.00;;;;4985203;28;86299;-62
2022/08/17 00:54:37;;;;;;;25.13;17.20;;;19.80;99.90;19.90;99160.00;;;;4986839;28;87597;-62
2022/08/17 00:57:10;;;;;;;27.38;20.20;;;19.80;99.90;20.00;99165.00;;;;4988206;28;87753;-63
2022/08/17 00:59:55;;;;;;;26.77;18.80;;;19.80;99.90;20.00;99151.00;;;;4976198;28;88609;-62
2022/08/17 01:02:22;;;;;;;24.23;20.15;;;19.80;99.90;19.90;99151.00;;;;4988575;28;87037;-63
2022/08/17 01:04:51;;;;;;;22.77;18.65;;;19.70;99.90;19.90;99155.00;;;;4991887;28;87916;-63
2022/08/17 01:07:22;;;;;;;23.95;18.27;;;19.70;99.90;19.90;99163.00;;;;4991127;28;87265;-63
2022/08/17 01:09:50;;;;;;;21.15;17.00;;;19.70;99.90;19.90;99152.00;;;;4980987;28;87288;-62
2022/08/17 01:12:16;;;;;;;24.30;17.35;;;19.70;99.90;19.90;99156.00;;;;4989146;28;87109;-63
2022/08/17 01:14:43;;;;;;;28.17;16.73;;;;;19.90;99149.00;;;;4991358;28;87668;-63
2022/08/17 01:17:10;;;;;;;24.40;16.33;;;;;19.80;99147.00;;;;4990931;28;87341;-62
2022/08/17 01:19:40;;;;;;;24.90;15.73;;;19.60;99.90;19.80;99139.00;;;;4990803;28;87395;-63
2022/08/17 01:22:18;;;;;;;23.17;14.77;;;19.60;99.90;19.80;99151.00;;;;4987026;28;86945;-63
2022/08/17 01:24:56;;;;;;;21.05;16.08;;;19.60;99.90;19.80;99143.00;;;;4998281;28;89605;-63
2022/08/17 01:27:23;;;;;;;25.38;16.13;;;;;19.80;99139.00;;;;4987644;28;88173;-62
2022/08/17 01:29:59;;;;;;;26.25;17.25;;;19.60;99.90;19.70;99143.00;;;;4994997;28;87179;-63
2022/08/17 01:32:27;;;;;;;20.67;17.58;;;19.50;99.90;19.70;99142.00;;;;4991666;28;86894;-62
2022/08/17 01:34:54;;;;;;;23.70;17.58;;;;;19.70;99137.00;;;;4993560;28;87073;-62
2022/08/17 01:37:30;;;;;;;29.38;17.52;;;19.50;99.90;19.70;99139.00;;;;4993029;28;88662;-62
2022/08/17 01:40:22;;;;;;;24.98;17.15;;;19.50;99.90;19.60;99138.00;;;;4989574;28;86991;-62
2022/08/17 01:43:02;;;;;;;25.77;17.75;;;19.40;99.90;19.60;99134.00;;;;4995021;28;86246;-63
2022/08/17 01:45:33;;;;;;;26.42;17.75;;;19.40;99.90;19.60;99135.00;;;;4980398;28;87618;-62
2022/08/17 01:48:00;;;;;;;23.65;17.63;;;;;19.50;99141.00;;;;4983785;28;88237;-62
2022/08/17 01:50:33;;;;;;;27.30;17.95;;;19.30;99.90;19.50;99145.00;;;;4988636;28;88025;-62
2022/08/17 01:53:36;;;;;;;19.75;15.70;;;19.30;99.90;19.50;99145.00;;;;4999727;28;87519;-63
2022/08/17 01:56:09;;;;;;;26.35;18.70;;;19.20;99.90;19.40;99136.00;;;;4989983;28;88909;-62
2022/08/17 01:58:38;;;;;;;26.92;20.95;;;19.20;99.90;19.40;99140.00;;;;4992718;28;87259;-62
2022/08/17 02:01:06;;;;;;;24.30;17.80;;;19.20;99.90;19.40;99138.00;;;;4993261;28;87549;-63
2022/08/17 02:03:35;;;;;;;27.10;18.70;;;19.20;99.90;19.30;99145.00;;;;4991192;28;86992;-62
2022/08/17 02:06:02;;;;;;;24.13;17.65;;;;;19.40;99149.00;;;;4991302;28;87744;-62
2022/08/17 02:08:34;;;;;;;25.00;19.83;;;;;19.30;99134.00;;;;4989198;28;87755;-62
2022/08/17 02:11:05;;;;;;;27.30;19.23;;;19.20;99.90;19.30;99137.00;;;;4981437;28;86855;-63
2022/08/17 02:13:32;;;;;;;27.35;18.42;;;;;19.30;99130.00;;;;4995359;28;86931;-63
2022/08/17 02:15:59;;;;;;;28.38;18.48;;;19.00;99.90;19.20;99132.00;;;;4984960;28;88502;-62
2022/08/17 02:18:27;;;;;;;21.25;16.45;;;19.00;99.90;19.20;99140.00;;;;4996904;28;89753;-63
2022/08/17 02:20:53;;;;;;;21.63;16.30;;;;;19.20;99133.00;;;;4982180;28;87088;-62
2022/08/17 02:23:22;;;;;;;21.77;17.15;;;19.00;99.90;19.10;99132.00;;;;4990454;28;87353;-62
2022/08/17 02:25:48;;;;;;;31.23;16.75;;;19.00;99.90;19.10;99126.00;;;;4980035;28;87620;-62
2022/08/17 02:28:17;;;;;;;20.00;14.70;;;19.00;99.90;19.20;99138.00;;;;4994039;28;88461;-62
2022/08/17 02:30:45;;;;;;;20.00;14.45;;;19.10;99.90;19.20;99135.00;;;;4995573;28;87100;-61
2022/08/17 02:33:12;;;;;;;19.10;14.23;;;;;19.20;99146.00;;;;4986268;28;86757;-62
2022/08/17 02:35:39;;;;;;;22.98;13.85;;;19.10;99.90;19.20;99143.00;;;;4991304;28;87669;-62
2022/08/17 02:38:05;;;;;;;24.80;13.60;;;19.10;99.90;19.20;99144.00;;;;4988113;28;88414;-61
2022/08/17 02:40:33;;;;;;;22.77;13.10;;;19.10;99.90;19.30;99132.00;;;;4986961;28;88696;-62
2022/08/17 02:43:00;;;;;;;26.17;12.40;;;;;19.30;99139.00;;;;4987477;28;87317;-62
2022/08/17 02:45:26;;;;;;;16.50;12.25;;;;;19.30;99144.00;;;;5000447;28;87574;-62
2022/08/17 02:47:53;;;;;;;21.45;14.32;;;;;19.30;99143.00;;;;4997481;28;87325;-62
2022/08/17 02:50:23;;;;;;;18.75;12.75;;;19.20;99.90;19.40;99142.00;;;;4991024;28;86890;-62
2022/08/17 02:52:51;;;;;;;21.27;12.63;;;19.20;99.90;19.40;99136.00;;;;4980886;28;87850;-62
2022/08/17 02:55:27;;;;;;;18.73;12.02;;;19.20;99.90;19.40;99138.00;;;;4987292;28;88134;-62
2022/08/17 02:57:54;;;;;;;19.33;11.85;;;;;19.50;99143.00;;;;4993853;28;87290;-61
2022/08/17 03:00:32;;;;;;;18.20;12.27;;;19.30;99.90;19.50;99140.00;;;;4991955;28;87263;-62
2022/08/17 03:03:00;;;;;;;21.20;11.73;;;19.40;99.90;19.60;99125.00;;;;4989068;28;88019;-62
2022/08/17 03:05:30;;;;;;;17.63;12.50;;;19.60;99.90;19.90;99134.00;;;;4992974;28;88459;-62
2022/08/17 03:07:56;;;;;;;14.40;12.02;;;;;20.10;99131.00;;;;4993734;28;88290;-62
2022/08/17 03:10:23;;;;;;;18.80;12.75;;;;;20.30;99128.00;;;;4983452;28;86887;-62
2022/08/17 03:12:51;;;;;;;17.95;13.73;;;20.30;99.90;20.60;99147.00;;;;4992159;28;87025;-62
2022/08/17 03:15:29;;;;;;;18.48;14.45;;;20.40;99.90;20.70;99130.00;;;;4993801;28;87021;-62
2022/08/17 03:17:56;;;;;;;15.80;12.82;;;20.60;99.90;20.90;99142.00;;;;4996287;28;87605;-62
2022/08/17 03:20:25;;;;;;;22.48;13.45;;;20.70;99.90;21.00;99134.00;;;;4995693;28;87953;-62
2022/08/17 03:22:54;;;;;;;23.33;13.55;;;20.90;99.90;21.20;99129.00;;;;4994045;28;86727;-63
2022/08/17 03:25:32;;;;;;;22.35;13.90;;;21.00;99.90;21.30;99137.00;;;;4991113;28;87767;-62
2022/08/17 03:27:59;;;;;;;19.90;14.40;;;;;21.40;99135.00;;;;4988250;28;87433;-63
2022/08/17 03:30:26;;;;;;;22.98;14.35;;;21.30;99.90;21.60;99131.00;;;;4999599;28;87952;-63
2022/08/17 03:32:58;;;;;;;24.10;16.52;;;21.40;99.90;21.70;99143.00;;;;4995651;28;87095;-62
2022/08/17 03:35:27;;;;;;;;;;;21.40;99.90;21.80;99128.00;;;;4994857;28;88194;-62
2022/08/17 03:37:54;;;;;;;25.08;18.08;;;21.50;99.90;21.80;99137.00;;;;4992473;28;87050;-62
2022/08/17 03:40:22;;;;;;;24.65;17.48;;;;;21.80;99135.00;;;;4991900;28;87952;-62
2022/08/17 03:42:51;;;;;;;24.50;20.65;;;;;21.80;99136.00;;;;4987564;28;87272;-62
2022/08/17 03:56:41;;;;;;;28.55;20.98;;;21.70;99.90;21.90;99128.00;;;;5002773;28;87738;-63
2022/08/17 03:56:42;;;;;;;27.48;22.35;;;;;22.40;99141.00;;;;4992846;28;88608;-63
2022/08/17 03:59:21;;;;;;;31.88;23.10;;;22.10;99.90;22.50;99138.00;;;;4992224;28;89280;-63
2022/08/17 04:01:51;;;;;;;32.28;24.83;;;22.20;99.90;22.50;99142.00;;;;4988975;28;87033;-62
2022/08/17 04:04:18;;;;;;;33.53;27.77;;;22.20;99.90;22.60;99136.00;;;;4999423;28;87037;-62
2022/08/17 04:06:45;;;;;;;37.42;28.08;;;;;22.60;99133.00;;;;4993301;28;87759;-62
2022/08/17 04:09:11;;;;;;;38.50;28.00;;;22.40;99.90;22.70;99131.00;;;;4997298;28;87349;-63
2022/08/17 04:11:38;;;;;;;35.47;28.30;;;;;22.80;99135.00;;;;5001560;28;87008;-62
2022/08/17 04:14:05;;;;;;;38.88;32.50;;;22.40;99.90;22.70;99125.00;;;;4987347;28;86499;-63
2022/08/17 04:16:34;;;;;;;43.00;31.27;;;22.40;99.90;22.70;99131.00;;;;4993167;28;87905;-63
2022/08/17 04:19:01;;;;;;;47.05;32.15;;;;;22.80;99139.00;;;;4983808;28;87604;-62
2022/08/17 04:21:28;;;;;;;38.92;32.05;;;;;22.90;99141.00;;;;4999043;28;88016;-62
2022/08/17 04:23:54;;;;;;;44.58;31.48;;;;;23.10;99131.00;;;;4988833;28;87194;-61
2022/08/17 04:26:21;;;;;;;38.33;32.63;;;;;23.30;99131.00;;;;4986312;28;87795;-64
2022/08/17 04:28:47;;;;;;;45.97;35.95;;;;;23.20;99128.00;;;;4984607;28;87396;-62
2022/08/17 04:31:15;;;;;;;44.33;33.65;;;22.90;99.90;23.30;99127.00;;;;4998596;28;87143;-63
2022/08/17 04:33:45;;;;;;;43.10;33.83;;;23.10;99.90;23.40;99134.00;;;;4993425;28;87067;-63
2022/08/17 04:36:14;;;;;;;43.08;32.35;;;23.30;99.90;23.60;99134.00;;;;4993112;28;87325;-63
2022/08/17 04:38:44;;;;;;;41.42;33.00;;;23.30;99.90;23.80;99136.00;;;;4996872;28;86531;-63
2022/08/17 04:43:58;;;;;;;45.65;34.35;;;23.50;99.90;23.90;99135.00;;;;4994297;28;86927;-63
2022/08/17 04:46:31;;;;;;;43.58;33.67;;;23.60;99.90;24.10;99131.00;;;;5000562;28;89824;-63
2022/08/17 04:48:59;;;;;;;48.88;33.05;;;23.70;99.90;24.10;99138.00;;;;4995406;28;87233;-63
2022/08/17 04:51:36;;;;;;;39.53;31.52;;;23.60;99.90;24.00;99133.00;;;;4988917;28;87123;-63
2022/08/17 04:54:18;;;;;;;42.47;32.25;;;23.80;99.90;24.20;99131.00;;;;4983781;28;86971;-63
2022/08/17 04:56:45;;;;;;;42.63;32.38;;;;;24.30;99122.00;;;;4992743;28;87646;-63
2022/08/17 04:59:20;;;;;;;42.75;32.35;;;23.90;99.90;24.40;99122.00;;;;4991475;28;87400;-63
2022/08/17 05:01:49;;;;;;;40.72;31.85;;;23.90;99.90;24.30;99129.00;;;;4994526;28;87271;-63
2022/08/17 05:04:23;;;;;;;37.78;31.40;;;23.80;99.90;24.30;99122.00;;;;4994433;28;86445;-64
2022/08/17 05:06:50;;;;;;;34.53;28.88;;;23.90;99.90;24.40;99124.00;;;;4991950;28;87698;-63
2022/08/17 05:09:17;;;;;;;35.28;28.67;;;;;24.60;99121.00;;;;4985553;28;87328;-64
2022/08/17 05:11:45;;;;;;;36.55;28.05;;;24.20;99.90;24.60;99118.00;;;;4998841;28;88047;-63
2022/08/17 05:14:12;;;;;;;35.85;29.88;;;;;24.40;99124.00;;;;4986120;28;87051;-62
2022/08/17 05:16:38;;;;;;;37.42;26.95;;;;;24.50;99113.00;;;;4991420;28;88698;-63
2022/08/17 05:19:05;;;;;;;34.72;27.55;;;;;24.60;99108.00;;;;4997618;28;87383;-63
2022/08/17 05:21:31;;;;;;;37.03;26.08;;;;;24.90;99121.00;;;;4997061;28;86960;-63
2022/08/17 05:23:58;;;;;;;35.90;26.27;;;;;25.10;99109.00;;;;4992540;28;87071;-63
2022/08/17 05:26:26;;;;;;;33.55;26.63;;;24.80;99.90;25.10;99108.00;;;;4994555;28;88049;-63
2022/08/17 05:28:57;;;;;;;36.63;27.27;;;24.50;99.90;24.90;99104.00;;;;4997297;28;87463;-63
2022/08/17 05:31:24;;;;;;;35.92;26.88;;;;;25.00;99109.00;;;;4985847;28;87457;-63
2022/08/17 05:33:51;;;;;;;33.35;26.27;;;;;25.10;99103.00;;;;4993106;28;87025;-62
2022/08/17 05:36:17;;;;;;;32.75;26.25;;;;;25.20;99109.00;;;;4992511;28;89458;-62
2022/08/17 05:38:44;;;;;;;35.65;25.67;;;;;25.20;99113.00;;;;4997902;28;87991;-62
2022/08/17 05:41:10;;;;;;;40.05;26.30;;;24.80;99.90;25.20;99110.00;;;;4983903;28;86974;-62
2022/08/17 05:43:40;;;;;;;29.77;25.08;;;24.80;99.90;25.30;99109.00;;;;4989265;28;87281;-63
2022/08/17 05:46:18;;;;;;;39.53;25.70;;;24.80;99.90;25.30;99098.00;;;;5000093;28;87561;-63
2022/08/17 05:48:48;;;;;;;33.08;26.52;;;24.60;99.90;25.10;99102.00;;;;4994134;28;87419;-63
2022/08/17 05:51:32;;;;;;;33.80;24.58;;;24.60;99.90;25.10;99094.00;;;;4995710;28;87099;-62
2022/08/17 05:54:21;;;;;;;35.38;26.65;;;24.70;99.90;25.10;99101.00;;;;4998161;28;86248;-63
2022/08/17 05:56:47;;;;;;;38.42;26.05;;;;;25.00;99104.00;;;;4987698;28;87802;-61
2022/08/17 05:59:20;;;;;;;33.55;24.48;;;;;25.30;99097.00;;;;4989924;28;87579;-62
2022/08/17 06:02:10;;;;;;;34.08;23.83;;;24.90;99.90;25.40;99102.00;;;;4994789;28;88536;-62
2022/08/17 06:04:46;;;;;;;35.42;23.30;;;;;25.40;99098.00;;;;4995788;28;87416;-61
2022/08/17 06:07:34;;;;;;;32.25;24.45;;;;;25.20;99108.00;;;;4991024;28;87643;-61
2022/08/17 06:10:29;;;;;;;37.65;23.20;;;24.80;99.90;25.00;99096.00;;;;4979374;28;90159;-61
2022/08/17 06:13:22;;;;;;;33.67;24.33;;;24.80;99.90;25.00;99112.00;;;;4983140;28;87005;-61
2022/08/17 06:16:03;;;;;;;29.75;22.40;;;;;25.00;99106.00;;;;4990218;28;87104;-62
2022/08/17 06:18:48;;;;;;;32.85;22.95;;;24.70;99.90;25.00;99108.00;;;;4988007;28;88702;-62
2022/08/17 06:21:18;;;;;;;28.27;21.42;;;24.60;99.90;24.70;99109.00;;;;4988887;28;87465;-60
2022/08/17 06:23:52;;;;;;;26.42;21.75;;;24.50;99.90;24.80;99109.00;;;;4985241;28;87074;-61
2022/08/17 06:26:24;;;;;;;30.23;22.75;;;24.60;99.90;24.90;99104.00;;;;4986040;28;87113;-62
2022/08/17 06:29:03;;;;;;;33.38;20.75;;;24.70;99.90;24.90;99108.00;;;;4972798;28;88669;-61
2022/08/17 06:31:35;;;;;;;29.42;19.85;;;24.60;99.90;24.90;99106.00;;;;4990702;28;88282;-60
2022/08/17 06:34:05;;;;;;;33.60;19.42;;;24.70;99.90;24.90;99113.00;;;;4987585;28;86985;-61
2022/08/17 06:36:56;;;;;;;29.08;19.83;;;24.80;99.90;25.00;99103.00;;;;4986897;28;86885;-62
2022/08/17 06:39:49;;;;;;;24.90;18.20;;;25.00;99.90;25.20;99102.00;;;;4996018;28;88583;-60
2022/08/17 06:42:39;;;;;;;30.75;19.33;;;25.10;99.90;25.30;99107.00;;;;4982183;28;87853;-61
2022/08/17 06:45:20;;;;;;;32.30;19.83;;;;;25.20;99105.00;;;;4965492;28;87063;-62
2022/08/17 06:48:24;;;;;;;26.88;19.52;;;24.80;99.90;25.10;99108.00;;;;5001284;28;86568;-61
2022/08/17 06:51:00;;;;;;;28.35;18.33;;;24.90;99.90;25.10;99106.00;;;;4993280;28;88157;-61
2022/08/17 06:53:44;;;;;;;22.33;17.63;;;24.90;99.90;25.10;99106.00;;;;4983828;28;87287;-62
2022/08/17 06:56:39;;;;;;;23.25;15.98;;;25.00;99.90;25.30;99117.00;;;;4989488;28;87897;-61
2022/08/17 06:59:09;;;;;;;21.73;17.25;;;25.20;99.90;25.40;99118.00;;;;4977629;28;86961;-62
2022/08/17 07:01:38;;;;;;;25.90;17.95;;;25.20;99.90;25.40;99116.00;;;;4994585;28;87264;-62
2022/08/17 07:04:08;;;;;;;27.40;19.23;;;;;25.40;99106.00;;;;4994484;28;87392;-62
2022/08/17 07:06:43;;;;;;;22.92;16.27;;;25.20;99.90;25.50;99112.00;;;;4994091;28;86985;-61
2022/08/17 07:09:30;;;;;;;26.48;17.58;;;25.30;99.90;25.50;99108.00;;;;5002146;28;87788;-62
2022/08/17 07:12:08;;;;;;;28.50;15.35;;;25.40;99.90;25.60;99103.00;;;;5002504;28;87681;-62
2022/08/17 07:14:55;;;;;;;23.67;15.20;;;25.50;99.90;25.70;99107.00;;;;4995534;28;87330;-61
2022/08/17 07:17:23;;;;;;;24.20;14.55;;;25.50;99.90;25.70;99090.00;;;;4992530;28;86976;-62
2022/08/17 07:20:04;;;;;;;20.35;12.82;;;25.60;99.90;25.80;99099.00;;;;4999801;28;87073;-62
2022/08/17 07:22:46;;;;;;;;;;;25.60;99.90;25.90;99097.00;;;;4995613;28;89644;-61
2022/08/17 07:25:17;;;;;;;27.52;12.07;;;25.60;99.90;25.90;99100.00;;;;5000646;28;87927;-62
2022/08/17 07:27:51;;;;;;;15.18;11.10;;;25.70;99.90;25.90;99102.00;;;;4990706;28;87322;-62
2022/08/17 07:30:32;;;;;;;18.58;11.48;;;25.70;99.90;26.00;99094.00;;;;4992568;28;87378;-62
2022/08/17 07:33:24;;;;;;;18.00;11.50;;;25.90;99.90;26.20;99094.00;;;;4994582;28;88695;-62
2022/08/17 07:35:51;;;;;;;16.17;11.43;;;;;26.30;99086.00;;;;4992908;28;88381;-62
2022/08/17 07:38:27;;;;;;;17.70;10.25;;;26.10;99.60;26.40;99085.00;;;;4993877;28;87069;-62
2022/08/17 07:41:03;;;;;;;18.98;9.55;;;;;26.50;99098.00;;;;4998718;28;86264;-62
2022/08/17 07:43:38;;;;;;;17.30;9.20;;;26.20;98.50;26.50;99081.00;;;;4996787;28;88711;-62
2022/08/17 07:49:18;;;;;;;11.35;7.72;;;26.20;98.60;26.50;99085.00;;;;4988674;28;88315;-61
2022/08/17 07:51:45;;;;;;;14.60;8.75;;;;;26.50;99073.00;;;;4994988;28;87763;-62
2022/08/17 07:54:14;;;;;;;13.75;7.90;;;;;26.50;99082.00;;;;4999708;28;87620;-62
2022/08/17 07:57:02;;;;;;;15.55;8.20;;;26.40;98.40;26.60;99072.00;;;;4991680;28;87709;-61
2022/08/17 07:59:38;;;;;;;15.02;8.15;;;26.30;97.80;26.60;99072.00;;;;4993463;28;87021;-61
2022/08/17 08:02:20;;;;;;;13.30;7.05;;;;;26.60;99086.00;;;;4988945;28;87354;-62
2022/08/17 08:04:58;;;;;;;13.25;6.68;;;26.40;97.70;26.70;99077.00;;;;4986339;28;90254;-61
2022/08/17 08:07:58;;;;;;;17.70;7.78;;;26.50;97.00;26.80;99073.00;;;;4975251;28;87329;-61
2022/08/17 08:10:36;;;;;;;11.02;7.25;;;26.60;97.60;26.80;99073.00;;;;4988734;28;87654;-61
2022/08/17 08:13:23;;;;;;;17.00;7.30;;;26.50;96.70;26.80;99078.00;;;;4989267;28;87563;-61
2022/08/17 08:15:54;;;;;;;15.10;6.85;;;26.70;96.90;27.00;99065.00;;;;5007384;28;89809;-61
2022/08/17 08:18:29;;;;;;;12.82;7.45;;;26.80;96.60;27.10;99075.00;;;;5000606;28;89341;-62
2022/08/17 08:21:07;;;;;;;12.50;7.32;;;26.90;96.70;27.20;99072.00;;;;4999025;28;87779;-62
2022/08/17 08:23:46;;;;;;;13.52;6.85;;;26.90;96.20;27.20;99078.00;;;;4990670;28;87261;-63
2022/08/17 08:26:41;;;;;;;14.93;6.75;;;26.90;96.20;27.10;99078.00;;;;4995389;28;87539;-62
2022/08/17 08:29:48;;;;;;;9.07;6.80;;;26.90;95.90;27.20;99061.00;;;;4999508;28;87463;-62
2022/08/17 08:32:23;;;;;;;21.25;6.70;;;27.00;96.20;27.30;99077.00;;;;4992146;28;87108;-63
2022/08/17 08:35:09;;;;;;;12.18;6.60;;;;;27.30;99076.00;;;;4989888;28;86226;-63
2022/08/17 08:38:15;;;;;;;15.00;5.85;;;27.00;95.10;27.30;99071.00;;;;4969251;28;89382;-63
2022/08/17 08:41:37;;;;;;;13.32;6.22;;;27.00;94.70;27.30;99072.00;;;;4985524;28;87325;-62
2022/08/17 08:44:30;;;;;;;12.90;6.22;;;27.00;94.90;27.30;99074.00;;;;4985483;28;88190;-63
2022/08/17 08:47:13;;;;;;;14.73;6.10;;;;;27.30;99067.00;;;;4982633;28;86893;-62
2022/08/17 08:50:26;;;;;;;14.50;5.20;;;27.10;94.90;27.30;99073.00;;;;4988077;28;88680;-61
2022/08/17 08:53:26;;;;;;;9.35;5.05;;;26.90;94.40;27.20;99060.00;;;;4992063;28;86935;-62
2022/08/17 08:56:09;;;;;;;12.13;4.85;;;27.00;95.00;27.30;99065.00;;;;4989622;28;87059;-62
2022/08/17 08:59:23;;;;;;;14.25;4.65;;;27.20;94.70;27.50;99056.00;;;;4995724;28;87825;-62
2022/08/17 09:01:50;;;;;;;11.75;4.93;;;;;27.60;99059.00;;;;4990871;28;87574;-62
2022/08/17 09:04:44;;;;;;;13.65;5.60;;;27.30;94.10;27.60;99062.00;;;;4992588;28;88148;-62
2022/08/17 09:07:38;;;;;;;8.48;5.22;;;27.20;94.10;27.60;99055.00;;;;4989391;28;87388;-61
2022/08/17 09:10:13;;;;;;;12.90;5.10;;;;;27.70;99060.00;;;;4982544;28;87287;-62
2022/08/17 09:13:43;;;;;;;12.43;5.22;;;27.50;94.30;27.80;99062.00;;;;4986340;28;88710;-61
2022/08/17 09:16:18;;;;;;;11.07;6.00;;;27.50;93.60;27.80;99060.00;;;;4985543;28;89011;-61
2022/08/17 09:18:53;;;;;;;9.95;4.57;;;27.40;93.50;27.70;99056.00;;;;4994708;28;87091;-62
2022/08/17 09:21:26;;;;;;;7.40;4.28;;;;;27.70;99060.00;;;;4999155;28;87080;-62
2022/08/17 09:24:11;;;;;;;11.18;4.03;;;27.30;93.60;27.60;99054.00;;;;4990541;28;87665;-62
2022/08/17 09:26:40;;;;;;;8.85;4.85;;;;;27.70;99060.00;;;;4996722;28;87477;-61
2022/08/17 09:29:12;;;;;;;8.52;3.97;;;27.40;93.20;27.70;99054.00;;;;4998172;28;87366;-62
2022/08/17 09:31:55;;;;;;;8.85;4.85;;;27.50;93.90;27.80;99057.00;;;;4988027;28;86456;-61
2022/08/17 09:34:41;;;;;;;9.57;4.68;;;27.50;93.60;27.80;99057.00;;;;4988165;28;87741;-61
2022/08/17 09:37:07;;;;;;;8.30;4.40;;;;;27.90;99042.00;;;;4985065;28;87162;-61
2022/08/17 09:40:15;;;;;;;9.13;4.72;;;27.50;93.40;27.80;99051.00;;;;4999176;28;89012;-61
2022/08/17 09:42:45;;;;;;;9.85;3.80;;;;;28.00;99048.00;;;;4982463;28;87022;-62
2022/08/17 09:45:56;;;;;;;6.85;4.03;;;27.80;93.30;28.10;99054.00;;;;4980860;28;88730;-62
2022/08/17 09:48:44;;;;;;;6.38;3.40;;;27.80;93.20;28.20;99054.00;;;;4997402;28;87189;-62
2022/08/17 09:51:21;;;;;;;8.05;3.20;;;27.90;92.90;28.20;99052.00;;;;4971584;28;86987;-62
2022/08/17 09:53:48;;;;;;;9.93;3.72;;;;;28.20;99042.00;;;;4993923;28;87021;-62
2022/08/17 09:56:37;;;;;;;10.65;3.38;;;27.90;91.90;28.30;99043.00;;;;4992250;28;87590;-62
2022/08/17 09:59:22;;;;;;;7.55;3.50;;;;;28.30;99041.00;;;;4988220;28;87194;-62
2022/08/17 10:02:35;;;;;;;10.40;3.55;;;27.90;92.20;28.30;99041.00;;;;4993068;28;86944;-62
2022/08/17 10:05:12;;;;;;;9.45;3.25;;;27.90;92.00;28.30;99031.00;;;;4981314;28;87397;-62
2022/08/17 10:08:23;;;;;;;8.35;3.70;;;28.00;92.00;28.40;99049.00;;;;4989139;28;91318;-62
2022/08/17 10:11:14;;;;;;;15.13;4.20;;;27.90;91.80;28.30;99035.00;;;;4992111;28;88468;-61
2022/08/17 10:14:04;;;;;;;6.78;3.30;;;28.00;91.40;28.30;99035.00;;;;4988129;28;87449;-61
2022/08/17 10:16:55;;;;;;;10.75;3.80;;;28.10;91.60;28.40;99041.00;;;;4988345;28;86948;-62
2022/08/17 10:19:37;;;;;;;8.15;3.70;;;28.10;91.30;28.40;99048.00;;;;4990922;28;87652;-62
2022/08/17 10:28:04;;;;;;;5.35;3.00;;;28.00;90.70;28.40;99047.00;;;;4984063;28;86322;-61
2022/08/17 10:30:35;;;;;;;9.25;3.17;;;28.00;91.20;28.30;99040.00;;;;4988684;28;88511;-61
2022/08/17 10:33:15;;;;;;;8.13;3.03;;;27.90;90.80;28.30;99040.00;;;;4977620;28;87125;-62
2022/08/17 10:36:07;;;;;;;11.35;3.10;;;27.90;91.10;28.30;99033.00;;;;4987965;28;87903;-61
2022/08/17 10:38:46;;;;;;;5.07;2.85;;;28.00;90.70;28.40;99032.00;;;;4990832;28;86981;-61
2022/08/17 10:41:49;;;;;;;7.38;3.40;;;27.90;90.40;28.30;99033.00;;;;4994940;28;87834;-62
2022/08/17 10:44:47;;;;;;;6.53;3.30;;;28.00;90.20;28.30;99027.00;;;;4990200;28;87411;-62
2022/08/17 10:47:17;;;;;;;7.78;2.95;;;27.90;90.50;28.30;99039.00;;;;5000956;28;86934;-62
2022/08/17 10:49:54;;;;;;;9.73;3.30;;;28.00;89.70;28.40;99033.00;;;;4993591;28;87433;-62
2022/08/17 10:52:27;;;;;;;10.68;3.58;;;28.10;90.20;28.50;99019.00;;;;4984332;28;88434;-63
2022/08/17 10:54:55;;;;;;;8.88;3.58;;;;;28.60;99016.00;;;;4994975;28;88422;-61
2022/08/17 10:57:33;;;;;;;7.90;4.00;;;28.10;89.00;28.50;99014.00;;;;4988549;28;87314;-61
2022/08/17 11:00:14;;;;;;;9.93;3.60;;;28.10;89.80;28.50;99023.00;;;;4992751;28;87099;-63
2022/08/17 11:02:50;;;;;;;12.98;4.13;;;28.10;89.10;28.50;99021.00;;;;4989683;28;88650;-62
2022/08/17 11:05:51;;;;;;;11.93;3.80;;;28.20;89.70;28.60;99019.00;;;;4981821;28;88232;-63
2022/08/17 11:09:36;;;;;;;10.40;3.90;;;28.30;90.20;28.70;99010.00;;;;4991925;28;86957;-62
2022/08/17 11:12:31;;;;;;;11.30;4.43;;;28.30;88.70;28.70;99014.00;;;;4957350;28;87152;-62
2022/08/17 11:15:25;;;;;;;8.65;4.20;;;28.30;88.10;28.70;99007.00;;;;4987208;28;87643;-61
2022/08/17 11:18:15;;;;;;;12.15;4.28;;;28.40;88.60;28.80;99016.00;;;;4987187;28;87826;-62
2022/08/17 11:21:12;;;;;;;12.73;4.83;;;28.30;87.40;28.60;99003.00;;;;4982640;28;87226;-61
2022/08/17 11:24:06;;;;;;;9.23;4.78;;;28.30;87.70;28.70;99007.00;;;;4990402;28;86405;-62
2022/08/17 11:26:36;;;;;;;6.15;3.70;;;28.30;87.90;28.70;99005.00;;;;4986599;28;87606;-63
2022/08/17 11:29:23;;;;;;;8.63;4.00;;;28.40;88.50;28.80;99000.00;;;;5000097;28;87272;-62
2022/08/17 11:32:40;;;;;;;7.38;4.20;;;28.20;88.00;28.70;99001.00;;;;4998093;28;88132;-63
2022/08/17 11:35:21;;;;;;;8.40;4.20;;;28.30;87.20;28.60;99006.00;;;;4990788;28;86876;-62
2022/08/17 11:38:05;;;;;;;8.93;4.60;;;28.30;86.70;28.70;98997.00;;;;4992243;28;88654;-62
2022/08/17 11:40:45;;;;;;;7.53;4.20;;;28.30;87.80;28.70;99008.00;;;;4998333;28;87440;-62
2022/08/17 11:44:04;;;;;;;12.50;4.75;;;28.40;87.30;28.80;98996.00;;;;4998472;28;87411;-61
2022/08/17 11:52:55;;;;;;;9.55;4.28;;;;;28.90;98988.00;;;;4991417;28;87271;-61
2022/08/17 11:55:27;;;;;;;10.70;4.40;;;28.60;87.00;28.90;98985.00;;;;4990702;28;87478;-63
2022/08/17 11:58:01;;;;;;;6.72;4.20;;;28.60;85.40;29.00;98980.00;;;;4995393;28;87056;-62
2022/08/17 12:01:00;;;;;;;7.85;4.50;;;28.60;85.40;28.90;98962.00;;;;4993300;28;88444;-61
2022/08/17 12:03:32;;;;;;;7.68;4.85;;;28.50;85.60;28.90;98975.00;;;;4989950;28;88264;-61
2022/08/17 12:06:26;;;;;;;15.85;4.28;;;28.50;86.30;28.90;98978.00;;;;4998149;28;86960;-62
2022/08/17 12:09:09;;;;;;;7.90;4.03;;;28.60;85.50;29.00;98971.00;;;;4994657;28;86921;-61
2022/08/17 12:11:55;;;;;;;10.50;4.88;;;;;29.10;98970.00;;;;4983176;28;87666;-61
2022/08/17 12:14:32;;;;;;;12.48;5.20;;;28.80;85.90;29.20;98961.00;;;;4983742;28;88552;-61